sensor_id;sensor_type;location;lat;lon;timestamp;temperature;humidity
37242;DHT22;23135;51.078;12.108;2024-02-28T00:01:25;3.90;99.90
37242;DHT22;23135;51.078;12.108;2024-02-28T00:03:50;3.90;99.90
37242;DHT22;23135;51.078;12.108;2024-02-28T00:06:17;3.90;99.90
37242;DHT22;23135;51.078;12.108;2024-02-28T00:08:42;3.90;99.90
37242;DHT22;23135;51.078;12.108;2024-02-28T00:11:08;3.90;99.90
37242;DHT22;23135;51.078;12.108;2024-02-28T00:13:33;3.90;99.90
37242;DHT22;23135;51.078;12.108;2024-02-28T00:15:59;3.90;99.90
37242;DHT22;23135;51.078;12.108;2024-02-28T00:18:24;3.90;99.90
37242;DHT22;23135;51.078;12.108;2024-02-28T00:20:50;3.90;99.90
37242;DHT22;23135;51.078;12.108;2024-02-28T00:23:15;3.90;99.90
37242;DHT22;23135;51.078;12.108;2024-02-28T00:25:41;3.90;99.90
37242;DHT22;23135;51.078;12.108;2024-02-28T00:28:07;3.90;99.90
37242;DHT22;23135;51.078;12.108;2024-02-28T00:30:32;3.90;99.90
37242;DHT22;23135;51.078;12.108;2024-02-28T00:32:59;3.90;99.90
37242;DHT22;23135;51.078;12.108;2024-02-28T00:35:24;3.90;99.90
37242;DHT22;23135;51.078;12.108;2024-02-28T00:37:50;3.90;99.90
37242;DHT22;23135;51.078;12.108;2024-02-28T00:40:15;3.90;99.90
37242;DHT22;23135;51.078;12.108;2024-02-28T00:42:41;3.90;99.90
37242;DHT22;23135;51.078;12.108;2024-02-28T00:45:09;3.90;99.90
37242;DHT22;23135;51.078;12.108;2024-02-28T00:47:35;3.80;99.90
37242;DHT22;23135;51.078;12.108;2024-02-28T00:50:01;3.80;99.90
37242;DHT22;23135;51.078;12.108;2024-02-28T00:52:28;3.80;99.90
37242;DHT22;23135;51.078;12.108;2024-02-28T00:54:54;3.80;99.90
37242;DHT22;23135;51.078;12.108;2024-02-28T00:57:19;3.80;99.90
37242;DHT22;23135;51.078;12.108;2024-02-28T00:59:45;3.80;99.90
37242;DHT22;23135;51.078;12.108;2024-02-28T01:02:11;3.80;99.90
37242;DHT22;23135;51.078;12.108;2024-02-28T01:04:36;3.80;99.90
37242;DHT22;23135;51.078;12.108;2024-02-28T01:07:02;3.90;99.90
37242;DHT22;23135;51.078;12.108;2024-02-28T01:09:27;3.80;99.90
37242;DHT22;23135;51.078;12.108;2024-02-28T01:11:53;3.90;99.90
37242;DHT22;23135;51.078;12.108;2024-02-28T01:14:18;3.90;99.90
37242;DHT22;23135;51.078;12.108;2024-02-28T01:16:44;3.80;99.90
37242;DHT22;23135;51.078;12.108;2024-02-28T01:19:10;3.80;99.90
37242;DHT22;23135;51.078;12.108;2024-02-28T01:21:35;3.80;99.90
37242;DHT22;23135;51.078;12.108;2024-02-28T01:24:01;3.80;99.90
37242;DHT22;23135;51.078;12.108;2024-02-28T01:26:26;3.80;99.90
37242;DHT22;23135;51.078;12.108;2024-02-28T01:28:52;3.80;99.90
37242;DHT22;23135;51.078;12.108;2024-02-28T01:31:17;3.80;99.90
37242;DHT22;23135;51.078;12.108;2024-02-28T01:33:43;3.80;99.90
37242;DHT22;23135;51.078;12.108;2024-02-28T01:36:08;3.80;99.90
37242;DHT22;23135;51.078;12.108;2024-02-28T01:38:34;3.80;99.90
37242;DHT22;23135;51.078;12.108;2024-02-28T01:41:00;3.80;99.90
37242;DHT22;23135;51.078;12.108;2024-02-28T01:43:25;3.80;99.90
37242;DHT22;23135;51.078;12.108;2024-02-28T01:45:51;3.80;99.90
37242;DHT22;23135;51.078;12.108;2024-02-28T01:48:17;3.80;99.90
37242;DHT22;23135;51.078;12.108;2024-02-28T01:50:42;3.70;99.90
37242;DHT22;23135;51.078;12.108;2024-02-28T01:53:08;3.70;99.90
37242;DHT22;23135;51.078;12.108;2024-02-28T01:55:35;3.70;99.90
37242;DHT22;23135;51.078;12.108;2024-02-28T01:58:02;3.70;99.90
37242;DHT22;23135;51.078;12.108;2024-02-28T02:00:32;3.70;99.90
37242;DHT22;23135;51.078;12.108;2024-02-28T02:03:00;3.70;99.90
37242;DHT22;23135;51.078;12.108;2024-02-28T02:05:26;3.60;99.90
37242;DHT22;23135;51.078;12.108;2024-02-28T02:07:51;3.60;99.90
37242;DHT22;23135;51.078;12.108;2024-02-28T02:10:17;3.60;99.90
37242;DHT22;23135;51.078;12.108;2024-02-28T02:12:43;3.60;99.90
37242;DHT22;23135;51.078;12.108;2024-02-28T02:15:08;3.60;99.90
37242;DHT22;23135;51.078;12.108;2024-02-28T02:17:34;3.60;99.90
37242;DHT22;23135;51.078;12.108;2024-02-28T02:20:00;3.60;99.90
37242;DHT22;23135;51.078;12.108;2024-02-28T02:22:37;3.60;99.90
37242;DHT22;23135;51.078;12.108;2024-02-28T02:25:04;3.60;99.90
37242;DHT22;23135;51.078;12.108;2024-02-28T02:27:30;3.60;99.90
37242;DHT22;23135;51.078;12.108;2024-02-28T02:29:55;3.60;99.90
37242;DHT22;23135;51.078;12.108;2024-02-28T02:32:21;3.60;99.90
37242;DHT22;23135;51.078;12.108;2024-02-28T02:34:46;3.50;99.90
37242;DHT22;23135;51.078;12.108;2024-02-28T02:37:12;3.50;99.90
37242;DHT22;23135;51.078;12.108;2024-02-28T02:39:37;3.50;99.90
37242;DHT22;23135;51.078;12.108;2024-02-28T02:42:03;3.50;99.90
37242;DHT22;23135;51.078;12.108;2024-02-28T02:44:29;3.50;99.90
37242;DHT22;23135;51.078;12.108;2024-02-28T02:46:54;3.50;99.90
37242;DHT22;23135;51.078;12.108;2024-02-28T02:49:20;3.50;99.90
37242;DHT22;23135;51.078;12.108;2024-02-28T02:51:45;3.50;99.90
37242;DHT22;23135;51.078;12.108;2024-02-28T02:54:11;3.50;99.90
37242;DHT22;23135;51.078;12.108;2024-02-28T02:56:37;3.40;99.90
37242;DHT22;23135;51.078;12.108;2024-02-28T02:59:02;3.40;99.90
37242;DHT22;23135;51.078;12.108;2024-02-28T03:01:28;3.40;99.90
37242;DHT22;23135;51.078;12.108;2024-02-28T03:03:54;3.40;99.90
37242;DHT22;23135;51.078;12.108;2024-02-28T03:06:19;3.40;99.90
37242;DHT22;23135;51.078;12.108;2024-02-28T03:08:45;3.40;99.90
37242;DHT22;23135;51.078;12.108;2024-02-28T03:11:10;3.40;99.90
37242;DHT22;23135;51.078;12.108;2024-02-28T03:13:36;3.40;99.90
37242;DHT22;23135;51.078;12.108;2024-02-28T03:16:05;3.40;99.90
37242;DHT22;23135;51.078;12.108;2024-02-28T03:18:31;3.40;99.90
37242;DHT22;23135;51.078;12.108;2024-02-28T03:20:57;3.40;99.90
37242;DHT22;23135;51.078;12.108;2024-02-28T03:23:22;3.40;99.90
37242;DHT22;23135;51.078;12.108;2024-02-28T03:25:48;3.40;99.90
37242;DHT22;23135;51.078;12.108;2024-02-28T03:28:13;3.40;99.90
37242;DHT22;23135;51.078;12.108;2024-02-28T03:30:39;3.40;99.90
37242;DHT22;23135;51.078;12.108;2024-02-28T03:33:04;3.40;99.90
37242;DHT22;23135;51.078;12.108;2024-02-28T03:35:30;3.40;99.90
37242;DHT22;23135;51.078;12.108;2024-02-28T03:37:55;3.40;99.90
37242;DHT22;23135;51.078;12.108;2024-02-28T03:40:21;3.40;99.90
37242;DHT22;23135;51.078;12.108;2024-02-28T03:42:46;3.40;99.90
37242;DHT22;23135;51.078;12.108;2024-02-28T03:45:12;3.40;99.90
37242;DHT22;23135;51.078;12.108;2024-02-28T03:47:38;3.40;99.90
37242;DHT22;23135;51.078;12.108;2024-02-28T03:50:03;3.40;99.90
37242;DHT22;23135;51.078;12.108;2024-02-28T03:52:29;3.40;99.90
37242;DHT22;23135;51.078;12.108;2024-02-28T03:54:56;3.40;99.90
37242;DHT22;23135;51.078;12.108;2024-02-28T03:57:22;3.40;99.90
37242;DHT22;23135;51.078;12.108;2024-02-28T03:59:48;3.40;99.90
37242;DHT22;23135;51.078;12.108;2024-02-28T04:02:13;3.40;99.90
37242;DHT22;23135;51.078;12.108;2024-02-28T04:04:39;3.40;99.90
37242;DHT22;23135;51.078;12.108;2024-02-28T04:07:05;3.40;99.90
37242;DHT22;23135;51.078;12.108;2024-02-28T04:09:31;3.40;99.90
37242;DHT22;23135;51.078;12.108;2024-02-28T04:11:56;3.40;99.90
37242;DHT22;23135;51.078;12.108;2024-02-28T04:14:22;3.40;99.90
37242;DHT22;23135;51.078;12.108;2024-02-28T04:16:48;3.40;99.90
37242;DHT22;23135;51.078;12.108;2024-02-28T04:19:15;3.40;99.90
37242;DHT22;23135;51.078;12.108;2024-02-28T04:21:41;3.30;99.90
37242;DHT22;23135;51.078;12.108;2024-02-28T04:24:07;3.30;99.90
37242;DHT22;23135;51.078;12.108;2024-02-28T04:26:33;3.30;99.90
37242;DHT22;23135;51.078;12.108;2024-02-28T04:28:59;3.30;99.90
37242;DHT22;23135;51.078;12.108;2024-02-28T04:31:26;3.30;99.90
37242;DHT22;23135;51.078;12.108;2024-02-28T04:33:52;3.30;99.90
37242;DHT22;23135;51.078;12.108;2024-02-28T04:36:17;3.30;99.90
37242;DHT22;23135;51.078;12.108;2024-02-28T04:38:43;3.30;99.90
37242;DHT22;23135;51.078;12.108;2024-02-28T04:41:09;3.20;99.90
37242;DHT22;23135;51.078;12.108;2024-02-28T04:43:34;3.20;99.90
37242;DHT22;23135;51.078;12.108;2024-02-28T04:46:01;3.20;99.90
37242;DHT22;23135;51.078;12.108;2024-02-28T04:48:28;3.30;99.90
37242;DHT22;23135;51.078;12.108;2024-02-28T04:50:54;3.20;99.90
37242;DHT22;23135;51.078;12.108;2024-02-28T04:53:19;3.20;99.90
37242;DHT22;23135;51.078;12.108;2024-02-28T04:55:45;3.20;99.90
37242;DHT22;23135;51.078;12.108;2024-02-28T04:58:11;3.20;99.90
37242;DHT22;23135;51.078;12.108;2024-02-28T05:00:36;3.20;99.90
37242;DHT22;23135;51.078;12.108;2024-02-28T05:03:02;3.20;99.90
37242;DHT22;23135;51.078;12.108;2024-02-28T05:05:28;3.20;99.90
37242;DHT22;23135;51.078;12.108;2024-02-28T05:07:53;3.20;99.90
37242;DHT22;23135;51.078;12.108;2024-02-28T05:10:19;3.20;99.90
37242;DHT22;23135;51.078;12.108;2024-02-28T05:12:44;3.20;99.90
37242;DHT22;23135;51.078;12.108;2024-02-28T05:15:10;3.20;99.90
37242;DHT22;23135;51.078;12.108;2024-02-28T05:17:36;3.20;99.90
37242;DHT22;23135;51.078;12.108;2024-02-28T05:20:01;3.20;99.90
37242;DHT22;23135;51.078;12.108;2024-02-28T05:22:27;3.10;99.90
37242;DHT22;23135;51.078;12.108;2024-02-28T05:24:52;3.20;99.90
37242;DHT22;23135;51.078;12.108;2024-02-28T05:27:18;3.10;99.90
37242;DHT22;23135;51.078;12.108;2024-02-28T05:29:45;3.10;99.90
37242;DHT22;23135;51.078;12.108;2024-02-28T05:32:10;3.10;99.90
37242;DHT22;23135;51.078;12.108;2024-02-28T05:34:36;3.10;99.90
37242;DHT22;23135;51.078;12.108;2024-02-28T05:37:02;3.10;99.90
37242;DHT22;23135;51.078;12.108;2024-02-28T05:39:28;3.10;99.90
37242;DHT22;23135;51.078;12.108;2024-02-28T05:41:56;3.10;99.90
37242;DHT22;23135;51.078;12.108;2024-02-28T05:44:23;3.20;99.90
37242;DHT22;23135;51.078;12.108;2024-02-28T05:46:49;3.10;99.90
37242;DHT22;23135;51.078;12.108;2024-02-28T05:49:15;3.10;99.90
37242;DHT22;23135;51.078;12.108;2024-02-28T05:51:41;3.10;99.90
37242;DHT22;23135;51.078;12.108;2024-02-28T05:54:06;3.10;99.90
37242;DHT22;23135;51.078;12.108;2024-02-28T05:56:32;3.10;99.90
37242;DHT22;23135;51.078;12.108;2024-02-28T05:58:57;3.10;99.90
37242;DHT22;23135;51.078;12.108;2024-02-28T06:01:23;3.10;99.90
37242;DHT22;23135;51.078;12.108;2024-02-28T06:03:49;3.10;99.90
37242;DHT22;23135;51.078;12.108;2024-02-28T06:06:14;3.10;99.90
37242;DHT22;23135;51.078;12.108;2024-02-28T06:08:40;3.10;99.90
37242;DHT22;23135;51.078;12.108;2024-02-28T06:11:07;3.10;99.90
37242;DHT22;23135;51.078;12.108;2024-02-28T06:13:32;3.10;99.90
37242;DHT22;23135;51.078;12.108;2024-02-28T06:15:58;3.10;99.90
37242;DHT22;23135;51.078;12.108;2024-02-28T06:18:25;3.10;99.90
37242;DHT22;23135;51.078;12.108;2024-02-28T06:20:54;3.20;99.90
37242;DHT22;23135;51.078;12.108;2024-02-28T06:23:20;3.20;99.90
37242;DHT22;23135;51.078;12.108;2024-02-28T06:25:46;3.20;99.90
37242;DHT22;23135;51.078;12.108;2024-02-28T06:28:12;3.20;99.90
37242;DHT22;23135;51.078;12.108;2024-02-28T06:30:37;3.20;99.90
37242;DHT22;23135;51.078;12.108;2024-02-28T06:33:03;3.20;99.90
37242;DHT22;23135;51.078;12.108;2024-02-28T06:35:30;3.20;99.90
37242;DHT22;23135;51.078;12.108;2024-02-28T06:37:55;3.20;99.90
37242;DHT22;23135;51.078;12.108;2024-02-28T06:40:21;3.30;99.90
37242;DHT22;23135;51.078;12.108;2024-02-28T06:42:46;3.30;99.90
37242;DHT22;23135;51.078;12.108;2024-02-28T06:45:12;3.30;99.90
37242;DHT22;23135;51.078;12.108;2024-02-28T06:47:37;3.30;99.90
37242;DHT22;23135;51.078;12.108;2024-02-28T06:50:04;3.30;99.90
37242;DHT22;23135;51.078;12.108;2024-02-28T06:52:30;3.40;99.90
37242;DHT22;23135;51.078;12.108;2024-02-28T06:54:56;3.40;99.90
37242;DHT22;23135;51.078;12.108;2024-02-28T06:57:21;3.40;99.90
37242;DHT22;23135;51.078;12.108;2024-02-28T06:59:47;3.40;99.90
37242;DHT22;23135;51.078;12.108;2024-02-28T07:02:13;3.40;99.90
37242;DHT22;23135;51.078;12.108;2024-02-28T07:04:39;3.50;99.90
37242;DHT22;23135;51.078;12.108;2024-02-28T07:07:06;3.50;99.90
37242;DHT22;23135;51.078;12.108;2024-02-28T07:09:31;3.60;99.90
37242;DHT22;23135;51.078;12.108;2024-02-28T07:11:58;3.60;99.90
37242;DHT22;23135;51.078;12.108;2024-02-28T07:14:24;3.60;99.90
37242;DHT22;23135;51.078;12.108;2024-02-28T07:16:50;3.60;99.90
37242;DHT22;23135;51.078;12.108;2024-02-28T07:19:17;3.70;99.90
37242;DHT22;23135;51.078;12.108;2024-02-28T07:21:44;3.70;99.90
37242;DHT22;23135;51.078;12.108;2024-02-28T07:24:10;3.80;99.90
37242;DHT22;23135;51.078;12.108;2024-02-28T07:26:36;3.80;99.90
37242;DHT22;23135;51.078;12.108;2024-02-28T07:29:01;3.90;99.90
37242;DHT22;23135;51.078;12.108;2024-02-28T07:31:27;3.90;99.90
37242;DHT22;23135;51.078;12.108;2024-02-28T07:33:52;4.00;99.90
37242;DHT22;23135;51.078;12.108;2024-02-28T07:36:18;4.00;99.90
37242;DHT22;23135;51.078;12.108;2024-02-28T07:38:44;4.10;99.90
37242;DHT22;23135;51.078;12.108;2024-02-28T07:41:10;4.20;99.90
37242;DHT22;23135;51.078;12.108;2024-02-28T07:43:35;4.20;99.90
37242;DHT22;23135;51.078;12.108;2024-02-28T07:46:08;4.20;99.90
37242;DHT22;23135;51.078;12.108;2024-02-28T07:48:34;4.20;99.90
37242;DHT22;23135;51.078;12.108;2024-02-28T07:51:00;4.20;99.90
37242;DHT22;23135;51.078;12.108;2024-02-28T07:53:28;4.20;99.90
37242;DHT22;23135;51.078;12.108;2024-02-28T07:55:54;4.30;99.90
37242;DHT22;23135;51.078;12.108;2024-02-28T07:58:19;4.40;99.90
37242;DHT22;23135;51.078;12.108;2024-02-28T08:00:45;4.40;99.90
37242;DHT22;23135;51.078;12.108;2024-02-28T08:03:10;4.40;99.90
37242;DHT22;23135;51.078;12.108;2024-02-28T08:05:36;4.40;99.90
37242;DHT22;23135;51.078;12.108;2024-02-28T08:08:07;4.40;99.90
37242;DHT22;23135;51.078;12.108;2024-02-28T08:10:33;4.50;99.90
37242;DHT22;23135;51.078;12.108;2024-02-28T08:13:01;4.50;99.90
37242;DHT22;23135;51.078;12.108;2024-02-28T08:15:26;4.70;99.90
37242;DHT22;23135;51.078;12.108;2024-02-28T08:17:52;4.80;99.90
37242;DHT22;23135;51.078;12.108;2024-02-28T08:20:17;5.00;99.90
37242;DHT22;23135;51.078;12.108;2024-02-28T08:22:43;5.30;99.90
37242;DHT22;23135;51.078;12.108;2024-02-28T08:25:09;5.50;99.90
37242;DHT22;23135;51.078;12.108;2024-02-28T08:27:37;5.60;99.90
37242;DHT22;23135;51.078;12.108;2024-02-28T08:30:04;5.60;99.90
37242;DHT22;23135;51.078;12.108;2024-02-28T08:32:31;5.60;99.90
37242;DHT22;23135;51.078;12.108;2024-02-28T08:34:57;6.00;99.90
37242;DHT22;23135;51.078;12.108;2024-02-28T08:37:23;6.00;99.90
37242;DHT22;23135;51.078;12.108;2024-02-28T08:39:49;5.80;99.90
37242;DHT22;23135;51.078;12.108;2024-02-28T08:42:14;5.60;99.90
37242;DHT22;23135;51.078;12.108;2024-02-28T08:44:40;5.60;99.90
37242;DHT22;23135;51.078;12.108;2024-02-28T08:47:06;5.60;99.90
37242;DHT22;23135;51.078;12.108;2024-02-28T08:49:34;5.60;99.90
37242;DHT22;23135;51.078;12.108;2024-02-28T08:52:00;5.80;99.90
37242;DHT22;23135;51.078;12.108;2024-02-28T08:54:26;6.10;99.90
37242;DHT22;23135;51.078;12.108;2024-02-28T08:56:52;6.40;99.90
37242;DHT22;23135;51.078;12.108;2024-02-28T08:59:17;6.30;99.90
37242;DHT22;23135;51.078;12.108;2024-02-28T09:01:43;6.00;99.90
37242;DHT22;23135;51.078;12.108;2024-02-28T09:04:08;5.80;99.90
37242;DHT22;23135;51.078;12.108;2024-02-28T09:06:34;6.10;99.90
37242;DHT22;23135;51.078;12.108;2024-02-28T09:09:00;6.40;99.90
37242;DHT22;23135;51.078;12.108;2024-02-28T09:11:25;6.50;99.90
37242;DHT22;23135;51.078;12.108;2024-02-28T09:13:51;6.40;99.90
37242;DHT22;23135;51.078;12.108;2024-02-28T09:16:17;6.10;99.90
37242;DHT22;23135;51.078;12.108;2024-02-28T09:18:42;6.00;99.90
37242;DHT22;23135;51.078;12.108;2024-02-28T09:21:08;6.10;99.90
37242;DHT22;23135;51.078;12.108;2024-02-28T09:23:34;6.20;99.90
37242;DHT22;23135;51.078;12.108;2024-02-28T09:26:03;6.20;99.90
37242;DHT22;23135;51.078;12.108;2024-02-28T09:28:29;6.10;99.90
37242;DHT22;23135;51.078;12.108;2024-02-28T09:30:55;5.80;99.90
37242;DHT22;23135;51.078;12.108;2024-02-28T09:33:20;5.60;99.90
37242;DHT22;23135;51.078;12.108;2024-02-28T09:35:46;5.50;99.90
37242;DHT22;23135;51.078;12.108;2024-02-28T09:38:11;5.50;99.90
37242;DHT22;23135;51.078;12.108;2024-02-28T09:40:37;5.70;99.90
37242;DHT22;23135;51.078;12.108;2024-02-28T09:43:04;5.60;99.90
37242;DHT22;23135;51.078;12.108;2024-02-28T09:45:30;5.50;99.90
37242;DHT22;23135;51.078;12.108;2024-02-28T09:48:00;5.40;99.90
37242;DHT22;23135;51.078;12.108;2024-02-28T09:50:27;5.30;99.90
37242;DHT22;23135;51.078;12.108;2024-02-28T09:52:53;5.50;99.90
37242;DHT22;23135;51.078;12.108;2024-02-28T09:55:19;5.80;99.90
37242;DHT22;23135;51.078;12.108;2024-02-28T09:57:48;6.20;99.90
37242;DHT22;23135;51.078;12.108;2024-02-28T10:00:15;6.70;99.90
37242;DHT22;23135;51.078;12.108;2024-02-28T10:02:45;6.80;99.90
37242;DHT22;23135;51.078;12.108;2024-02-28T10:05:12;6.60;99.90
37242;DHT22;23135;51.078;12.108;2024-02-28T10:07:39;6.40;99.90
37242;DHT22;23135;51.078;12.108;2024-02-28T10:10:06;6.60;99.90
37242;DHT22;23135;51.078;12.108;2024-02-28T10:12:33;6.90;99.90
37242;DHT22;23135;51.078;12.108;2024-02-28T10:15:00;7.00;99.90
37242;DHT22;23135;51.078;12.108;2024-02-28T10:17:26;7.30;99.90
37242;DHT22;23135;51.078;12.108;2024-02-28T10:19:52;7.30;99.90
37242;DHT22;23135;51.078;12.108;2024-02-28T10:22:18;7.40;99.90
37242;DHT22;23135;51.078;12.108;2024-02-28T10:24:44;7.20;99.90
37242;DHT22;23135;51.078;12.108;2024-02-28T10:27:09;7.00;99.90
37242;DHT22;23135;51.078;12.108;2024-02-28T10:29:35;7.10;99.90
37242;DHT22;23135;51.078;12.108;2024-02-28T10:32:00;7.40;99.90
37242;DHT22;23135;51.078;12.108;2024-02-28T10:34:28;7.60;99.90
37242;DHT22;23135;51.078;12.108;2024-02-28T10:36:56;7.80;99.90
37242;DHT22;23135;51.078;12.108;2024-02-28T10:39:23;8.10;99.90
37242;DHT22;23135;51.078;12.108;2024-02-28T10:41:50;8.00;99.90
37242;DHT22;23135;51.078;12.108;2024-02-28T10:44:18;8.00;99.90
37242;DHT22;23135;51.078;12.108;2024-02-28T10:46:49;8.00;99.90
37242;DHT22;23135;51.078;12.108;2024-02-28T10:49:14;7.90;99.90
37242;DHT22;23135;51.078;12.108;2024-02-28T10:51:41;7.90;99.90
37242;DHT22;23135;51.078;12.108;2024-02-28T10:54:12;8.10;99.90
37242;DHT22;23135;51.078;12.108;2024-02-28T10:56:47;8.20;99.90
37242;DHT22;23135;51.078;12.108;2024-02-28T10:59:14;8.20;99.90
37242;DHT22;23135;51.078;12.108;2024-02-28T11:01:41;8.00;99.90
37242;DHT22;23135;51.078;12.108;2024-02-28T11:04:07;8.20;99.90
37242;DHT22;23135;51.078;12.108;2024-02-28T11:06:33;8.20;99.90
37242;DHT22;23135;51.078;12.108;2024-02-28T11:09:00;8.20;99.90
37242;DHT22;23135;51.078;12.108;2024-02-28T11:11:30;8.30;99.90
37242;DHT22;23135;51.078;12.108;2024-02-28T11:13:59;8.30;99.90
37242;DHT22;23135;51.078;12.108;2024-02-28T11:16:31;8.40;99.90
37242;DHT22;23135;51.078;12.108;2024-02-28T11:18:57;8.40;99.90
37242;DHT22;23135;51.078;12.108;2024-02-28T11:21:24;8.10;99.90
37242;DHT22;23135;51.078;12.108;2024-02-28T11:23:51;8.10;99.90
37242;DHT22;23135;51.078;12.108;2024-02-28T11:26:17;8.40;99.90
37242;DHT22;23135;51.078;12.108;2024-02-28T11:28:43;8.50;99.90
37242;DHT22;23135;51.078;12.108;2024-02-28T11:31:09;8.60;99.90
37242;DHT22;23135;51.078;12.108;2024-02-28T11:33:36;8.70;99.90
37242;DHT22;23135;51.078;12.108;2024-02-28T11:36:01;8.70;99.90
37242;DHT22;23135;51.078;12.108;2024-02-28T11:38:28;8.80;99.90
37242;DHT22;23135;51.078;12.108;2024-02-28T11:40:55;8.90;99.90
37242;DHT22;23135;51.078;12.108;2024-02-28T11:43:21;8.70;99.90
37242;DHT22;23135;51.078;12.108;2024-02-28T11:45:46;8.70;99.90
37242;DHT22;23135;51.078;12.108;2024-02-28T11:48:13;8.70;99.90
37242;DHT22;23135;51.078;12.108;2024-02-28T11:50:39;9.00;99.90
37242;DHT22;23135;51.078;12.108;2024-02-28T11:53:06;8.80;99.90
37242;DHT22;23135;51.078;12.108;2024-02-28T11:55:32;9.00;99.90
37242;DHT22;23135;51.078;12.108;2024-02-28T11:57:58;9.10;99.90
37242;DHT22;23135;51.078;12.108;2024-02-28T12:00:23;9.20;99.90
37242;DHT22;23135;51.078;12.108;2024-02-28T12:02:49;9.30;99.90
37242;DHT22;23135;51.078;12.108;2024-02-28T12:05:14;9.30;99.90
37242;DHT22;23135;51.078;12.108;2024-02-28T12:07:41;9.30;99.90
37242;DHT22;23135;51.078;12.108;2024-02-28T12:10:08;9.30;99.90
37242;DHT22;23135;51.078;12.108;2024-02-28T12:12:34;9.30;99.90
37242;DHT22;23135;51.078;12.108;2024-02-28T12:15:01;9.50;99.90
37242;DHT22;23135;51.078;12.108;2024-02-28T12:17:30;9.50;99.90
37242;DHT22;23135;51.078;12.108;2024-02-28T12:19:58;9.70;99.90
37242;DHT22;23135;51.078;12.108;2024-02-28T12:22:24;9.90;99.90
37242;DHT22;23135;51.078;12.108;2024-02-28T12:24:49;9.80;99.90
37242;DHT22;23135;51.078;12.108;2024-02-28T12:27:15;9.80;99.90
37242;DHT22;23135;51.078;12.108;2024-02-28T12:29:40;10.00;99.90
37242;DHT22;23135;51.078;12.108;2024-02-28T12:32:07;10.20;99.90
37242;DHT22;23135;51.078;12.108;2024-02-28T12:34:33;10.50;99.90
37242;DHT22;23135;51.078;12.108;2024-02-28T12:36:59;10.80;99.90
37242;DHT22;23135;51.078;12.108;2024-02-28T12:39:25;10.90;99.90
37242;DHT22;23135;51.078;12.108;2024-02-28T12:41:50;10.90;99.90
37242;DHT22;23135;51.078;12.108;2024-02-28T12:44:16;10.90;99.90
37242;DHT22;23135;51.078;12.108;2024-02-28T12:46:42;10.60;99.90
37242;DHT22;23135;51.078;12.108;2024-02-28T12:49:07;10.70;99.90
37242;DHT22;23135;51.078;12.108;2024-02-28T12:51:41;10.50;99.90
37242;DHT22;23135;51.078;12.108;2024-02-28T12:54:10;10.60;99.90
37242;DHT22;23135;51.078;12.108;2024-02-28T12:56:37;10.80;99.90
37242;DHT22;23135;51.078;12.108;2024-02-28T12:59:03;11.00;99.90
37242;DHT22;23135;51.078;12.108;2024-02-28T13:01:29;11.20;99.90
37242;DHT22;23135;51.078;12.108;2024-02-28T13:03:55;10.90;99.90
37242;DHT22;23135;51.078;12.108;2024-02-28T13:06:21;11.10;99.90
37242;DHT22;23135;51.078;12.108;2024-02-28T13:08:47;11.20;99.90
37242;DHT22;23135;51.078;12.108;2024-02-28T13:11:18;11.40;99.90
37242;DHT22;23135;51.078;12.108;2024-02-28T13:13:44;11.50;99.90
37242;DHT22;23135;51.078;12.108;2024-02-28T13:16:09;11.50;99.60
37242;DHT22;23135;51.078;12.108;2024-02-28T13:18:35;11.30;98.40
37242;DHT22;23135;51.078;12.108;2024-02-28T13:21:01;11.20;98.90
37242;DHT22;23135;51.078;12.108;2024-02-28T13:23:26;11.20;99.90
37242;DHT22;23135;51.078;12.108;2024-02-28T13:25:52;11.40;99.90
37242;DHT22;23135;51.078;12.108;2024-02-28T13:28:17;11.20;99.90
37242;DHT22;23135;51.078;12.108;2024-02-28T13:30:43;11.00;99.90
37242;DHT22;23135;51.078;12.108;2024-02-28T13:33:08;11.20;99.90
37242;DHT22;23135;51.078;12.108;2024-02-28T13:35:35;11.20;99.90
37242;DHT22;23135;51.078;12.108;2024-02-28T13:38:00;11.40;99.90
37242;DHT22;23135;51.078;12.108;2024-02-28T13:40:27;11.30;99.80
37242;DHT22;23135;51.078;12.108;2024-02-28T13:42:53;10.90;98.90
37242;DHT22;23135;51.078;12.108;2024-02-28T13:45:18;10.60;98.90
37242;DHT22;23135;51.078;12.108;2024-02-28T13:47:44;10.60;99.80
37242;DHT22;23135;51.078;12.108;2024-02-28T13:50:10;10.70;99.90
37242;DHT22;23135;51.078;12.108;2024-02-28T13:52:36;10.90;98.80
37242;DHT22;23135;51.078;12.108;2024-02-28T13:55:01;11.10;99.50
37242;DHT22;23135;51.078;12.108;2024-02-28T13:57:27;11.30;98.70
37242;DHT22;23135;51.078;12.108;2024-02-28T13:59:53;11.40;99.20
37242;DHT22;23135;51.078;12.108;2024-02-28T14:02:21;11.50;98.40
37242;DHT22;23135;51.078;12.108;2024-02-28T14:04:47;11.50;98.60
37242;DHT22;23135;51.078;12.108;2024-02-28T14:07:17;11.50;98.30
37242;DHT22;23135;51.078;12.108;2024-02-28T14:09:42;11.30;98.30
37242;DHT22;23135;51.078;12.108;2024-02-28T14:12:10;11.20;98.80
37242;DHT22;23135;51.078;12.108;2024-02-28T14:14:35;11.10;99.10
37242;DHT22;23135;51.078;12.108;2024-02-28T14:17:01;11.40;99.00
37242;DHT22;23135;51.078;12.108;2024-02-28T14:19:27;11.70;98.90
37242;DHT22;23135;51.078;12.108;2024-02-28T14:21:52;11.80;99.00
37242;DHT22;23135;51.078;12.108;2024-02-28T14:24:18;11.90;98.50
37242;DHT22;23135;51.078;12.108;2024-02-28T14:26:45;11.90;98.70
37242;DHT22;23135;51.078;12.108;2024-02-28T14:29:11;12.00;98.10
37242;DHT22;23135;51.078;12.108;2024-02-28T14:31:36;11.70;98.00
37242;DHT22;23135;51.078;12.108;2024-02-28T14:34:02;11.80;98.00
37242;DHT22;23135;51.078;12.108;2024-02-28T14:36:30;11.90;98.00
37242;DHT22;23135;51.078;12.108;2024-02-28T14:38:56;11.80;97.60
37242;DHT22;23135;51.078;12.108;2024-02-28T14:41:21;11.60;97.30
37242;DHT22;23135;51.078;12.108;2024-02-28T14:43:48;11.70;97.50
37242;DHT22;23135;51.078;12.108;2024-02-28T14:46:13;11.50;96.50
37242;DHT22;23135;51.078;12.108;2024-02-28T14:48:42;11.40;96.60
37242;DHT22;23135;51.078;12.108;2024-02-28T14:51:08;11.40;96.70
37242;DHT22;23135;51.078;12.108;2024-02-28T14:53:34;11.30;96.20
37242;DHT22;23135;51.078;12.108;2024-02-28T14:56:00;11.10;96.80
37242;DHT22;23135;51.078;12.108;2024-02-28T14:58:25;11.10;96.00
37242;DHT22;23135;51.078;12.108;2024-02-28T15:00:51;10.90;97.20
37242;DHT22;23135;51.078;12.108;2024-02-28T15:03:16;10.70;97.90
37242;DHT22;23135;51.078;12.108;2024-02-28T15:05:42;10.80;97.70
37242;DHT22;23135;51.078;12.108;2024-02-28T15:08:09;10.80;97.80
37242;DHT22;23135;51.078;12.108;2024-02-28T15:10:35;10.60;97.40
37242;DHT22;23135;51.078;12.108;2024-02-28T15:13:01;10.60;98.10
37242;DHT22;23135;51.078;12.108;2024-02-28T15:15:26;10.40;97.90
37242;DHT22;23135;51.078;12.108;2024-02-28T15:17:53;10.50;98.20
37242;DHT22;23135;51.078;12.108;2024-02-28T15:20:19;10.50;98.20